Time;durP1;ratioP1;P1;durP2;ratioP2;P2;SDS_P1;SDS_P2;PMS_P1;PMS_P2;Temp;Humidity;BMP_temperature;BMP_pressure;BME280_temperature;BME280_humidity;BME280_pressure;Samples;Min_cycle;Max_cycle;Signal;HPM_P1;HPM_P2
2022/06/17 00:02:02;;;;;;;6.93;3.63;;;;;;;;;;3366436;42;20285;-56
2022/06/17 00:04:28;;;;;;;7.70;3.60;;;;;;;;;;3366656;42;20102;-58
2022/06/17 00:06:58;;;;;;;8.50;3.75;;;;;;;;;;3366685;42;20095;-54
2022/06/17 00:09:25;;;;;;;7.78;3.67;;;;;;;;;;3366074;42;20550;-55
2022/06/17 00:11:51;;;;;;;8.52;3.65;;;;;;;;;;3365138;42;20084;-54
2022/06/17 00:17:29;;;;;;;8.37;3.80;;;;;;;;;;3362270;42;20117;-54
2022/06/17 00:19:55;;;;;;;8.02;3.80;;;;;;;;;;3366574;42;20193;-56
2022/06/17 00:22:21;;;;;;;8.88;3.80;;;;;;;;;;3366626;42;20100;-56
2022/06/17 00:24:46;;;;;;;8.32;3.95;;;;;;;;;;3366638;42;20087;-57
2022/06/17 00:27:12;;;;;;;8.47;4.00;;;;;;;;;;3364891;42;20548;-58
2022/06/17 00:29:39;;;;;;;7.60;4.10;;;;;;;;;;3365355;42;20087;-57
2022/06/17 00:32:05;;;;;;;8.80;4.20;;;;;;;;;;3366272;42;20123;-56
2022/06/17 00:34:31;;;;;;;8.77;4.50;;;;;;;;;;3366629;42;20080;-57
2022/06/17 00:36:59;;;;;;;9.03;4.00;;;;;;;;;;3366184;42;20095;-56
2022/06/17 00:39:29;;;;;;;8.27;4.20;;;;;;;;;;3365355;42;20075;-57
2022/06/17 00:42:03;;;;;;;9.57;4.55;;;;;;;;;;3359998;42;20132;-56
2022/06/17 00:44:49;;;;;;;9.00;4.20;;;;;;;;;;3366684;42;20079;-56
2022/06/17 00:47:27;;;;;;;9.73;4.43;;;;;;;;;;3364934;42;20098;-56
2022/06/17 00:49:56;;;;;;;8.80;4.17;;;;;;;;;;3367337;42;20157;-56
2022/06/17 00:52:26;;;;;;;7.85;4.03;;;;;;;;;;3365014;42;20084;-57
2022/06/17 00:55:01;;;;;;;8.15;4.38;;;;;;;;;;3367383;42;20092;-55
2022/06/17 00:57:38;;;;;;;9.50;4.00;;;;;;;;;;3365007;42;20153;-57
2022/06/17 01:00:18;;;;;;;8.20;4.28;;;;;;;;;;3366302;42;20597;-57
2022/06/17 01:02:48;;;;;;;8.70;4.47;;;;;;;;;;3366479;42;20117;-54
2022/06/17 01:05:14;;;;;;;9.65;4.25;;;;;;;;;;3366300;42;20134;-57
2022/06/17 01:07:52;;;;;;;8.30;4.32;;;;;;;;;;3365119;42;20136;-57
2022/06/17 01:10:19;;;;;;;8.07;4.35;;;;;;;;;;3365635;42;20136;-56
2022/06/17 01:13:01;;;;;;;8.05;4.10;;;;;;;;;;3368091;42;20510;-57
2022/06/17 01:15:28;;;;;;;8.43;4.13;;;;;;;;;;3362629;42;20123;-57
2022/06/17 01:17:54;;;;;;;8.32;3.80;;;;;;;;;;3368128;42;20163;-55
2022/06/17 01:20:20;;;;;;;8.60;4.28;;;;;;;;;;3366964;42;20095;-57
2022/06/17 01:22:53;;;;;;;7.72;4.18;;;;;;;;;;3368355;42;20505;-56
2022/06/17 01:25:23;;;;;;;10.18;4.15;;;;;;;;;;3367139;42;20907;-54
2022/06/17 01:27:51;;;;;;;10.27;4.30;;;;;;;;;;3367926;42;20082;-56
2022/06/17 01:30:21;;;;;;;7.63;3.92;;;;;;;;;;3367871;42;20103;-56
2022/06/17 01:33:08;;;;;;;7.80;3.85;;;;;;;;;;3361652;42;20124;-57
2022/06/17 01:35:42;;;;;;;9.60;4.30;;;;;;;;;;3366681;42;20106;-58
2022/06/17 01:38:08;;;;;;;8.35;4.32;;;;;;;;;;3366723;42;20131;-56
2022/06/17 01:40:34;;;;;;;9.60;4.17;;;;;;;;;;3367672;42;20088;-57
2022/06/17 01:43:04;;;;;;;8.13;4.15;;;;;;;;;;3366466;42;20700;-55
2022/06/17 01:45:31;;;;;;;8.88;4.40;;;;;;;;;;3366645;42;20087;-56
2022/06/17 01:47:57;;;;;;;8.93;4.47;;;;;;;;;;3366240;42;20135;-55
2022/06/17 01:50:26;;;;;;;9.27;4.33;;;;;;;;;;3367769;42;20159;-55
2022/06/17 01:53:00;;;;;;;8.40;3.97;;;;;;;;;;3366381;42;20463;-56
2022/06/17 01:55:36;;;;;;;8.57;4.13;;;;;;;;;;3366536;42;20084;-54
2022/06/17 01:58:09;;;;;;;9.27;4.20;;;;;;;;;;3366644;42;20151;-56
2022/06/17 02:00:35;;;;;;;8.73;4.30;;;;;;;;;;3366476;42;20087;-57
2022/06/17 02:03:08;;;;;;;8.57;4.37;;;;;;;;;;3366530;42;20577;-55
2022/06/17 02:05:34;;;;;;;7.43;3.78;;;;;;;;;;3368354;42;20147;-57
2022/06/17 02:08:01;;;;;;;8.10;4.22;;;;;;;;;;3366346;42;20098;-56
2022/06/17 02:10:30;;;;;;;8.73;4.10;;;;;;;;;;3366702;42;20146;-54
2022/06/17 02:12:56;;;;;;;7.78;3.60;;;;;;;;;;3366528;42;20120;-56
2022/06/17 02:15:23;;;;;;;8.33;4.07;;;;;;;;;;3366810;42;20131;-56
2022/06/17 02:17:49;;;;;;;8.25;3.90;;;;;;;;;;3367910;42;20190;-56
2022/06/17 02:20:15;;;;;;;7.28;3.83;;;;;;;;;;3366405;42;20756;-57
2022/06/17 02:22:41;;;;;;;7.93;3.50;;;;;;;;;;3366491;42;20140;-57
2022/06/17 02:25:23;;;;;;;7.33;3.80;;;;;;;;;;3366074;42;20116;-54
2022/06/17 02:27:51;;;;;;;7.95;4.00;;;;;;;;;;3362339;42;20556;-55
2022/06/17 02:30:17;;;;;;;7.25;3.97;;;;;;;;;;3366246;42;20502;-55
2022/06/17 02:32:43;;;;;;;8.60;3.85;;;;;;;;;;3367371;42;20091;-55
2022/06/17 02:35:19;;;;;;;8.23;4.10;;;;;;;;;;3365987;42;20088;-58
2022/06/17 02:37:45;;;;;;;9.13;4.50;;;;;;;;;;3365884;42;20080;-58
2022/06/17 02:40:27;;;;;;;9.73;4.57;;;;;;;;;;3367341;42;20092;-57
2022/06/17 02:42:53;;;;;;;11.48;5.00;;;;;;;;;;3365938;42;20697;-58
2022/06/17 02:45:22;;;;;;;9.95;4.50;;;;;;;;;;3365962;42;20815;-54
2022/06/17 02:47:48;;;;;;;7.77;3.70;;;;;;;;;;3366207;42;20095;-54
2022/06/17 02:50:16;;;;;;;7.75;4.00;;;;;;;;;;3366121;42;20088;-55
2022/06/17 02:52:42;;;;;;;7.68;4.22;;;;;;;;;;3366134;42;20091;-56
2022/06/17 02:55:36;;;;;;;9.45;4.03;;;;;;;;;;3365841;42;20084;-56
2022/06/17 02:58:10;;;;;;;8.00;3.67;;;;;;;;;;3365098;42;20163;-56
2022/06/17 03:00:36;;;;;;;8.60;3.60;;;;;;;;;;3361438;42;20088;-56
2022/06/17 03:03:03;;;;;;;8.10;3.95;;;;;;;;;;3365482;42;20098;-56
2022/06/17 03:05:31;;;;;;;8.02;4.10;;;;;;;;;;3367466;42;20154;-57
2022/06/17 03:07:58;;;;;;;9.63;3.70;;;;;;;;;;3365746;42;20107;-55
2022/06/17 03:10:31;;;;;;;7.85;3.40;;;;;;;;;;3365799;42;20708;-57
2022/06/17 03:13:01;;;;;;;7.47;3.85;;;;;;;;;;3365509;42;20564;-56
2022/06/17 03:15:27;;;;;;;8.27;3.60;;;;;;;;;;3361061;42;20114;-54
2022/06/17 03:17:53;;;;;;;8.13;3.45;;;;;;;;;;3365644;42;20092;-53
2022/06/17 03:20:24;;;;;;;7.67;4.00;;;;;;;;;;3366876;42;20087;-55
2022/06/17 03:22:58;;;;;;;6.95;3.58;;;;;;;;;;3365248;42;20087;-57
2022/06/17 03:25:45;;;;;;;6.65;3.25;;;;;;;;;;3367035;42;20143;-55
2022/06/17 03:28:13;;;;;;;8.05;3.30;;;;;;;;;;3365292;42;20131;-53
2022/06/17 03:30:44;;;;;;;7.85;3.55;;;;;;;;;;3365590;42;20092;-54
2022/06/17 03:33:11;;;;;;;6.97;3.80;;;;;;;;;;3359298;42;20111;-55
2022/06/17 03:35:37;;;;;;;7.22;3.30;;;;;;;;;;3366414;42;20636;-53
2022/06/17 03:38:24;;;;;;;7.45;3.20;;;;;;;;;;3365454;42;20099;-55
2022/06/17 03:40:52;;;;;;;7.35;3.60;;;;;;;;;;3365760;42;20602;-55
2022/06/17 03:43:48;;;;;;;8.23;3.60;;;;;;;;;;3365408;42;20084;-56
2022/06/17 03:46:14;;;;;;;9.20;3.80;;;;;;;;;;3366356;42;20115;-56
2022/06/17 03:48:52;;;;;;;9.05;3.90;;;;;;;;;;3365558;42;20080;-58
2022/06/17 03:51:19;;;;;;;8.23;4.00;;;;;;;;;;3366611;42;20211;-57
2022/06/17 03:53:45;;;;;;;7.13;3.75;;;;;;;;;;3367054;42;20102;-54
2022/06/17 03:56:21;;;;;;;7.80;4.00;;;;;;;;;;3365189;42;20284;-53
2022/06/17 03:58:47;;;;;;;8.63;4.00;;;;;;;;;;3365328;42;20080;-57
2022/06/17 04:01:14;;;;;;;8.88;4.60;;;;;;;;;;3366520;42;20091;-53
2022/06/17 04:03:42;;;;;;;8.38;4.45;;;;;;;;;;3367364;42;20095;-56
2022/06/17 04:06:16;;;;;;;7.07;3.70;;;;;;;;;;3366583;42;20084;-57
2022/06/17 04:08:58;;;;;;;9.63;4.40;;;;;;;;;;3366666;42;20087;-57
2022/06/17 04:11:38;;;;;;;7.10;3.63;;;;;;;;;;3364984;42;20107;-57
2022/06/17 04:14:06;;;;;;;10.20;4.20;;;;;;;;;;3366257;42;20080;-54
2022/06/17 04:16:44;;;;;;;8.63;3.40;;;;;;;;;;3364992;42;20159;-56
2022/06/17 04:19:14;;;;;;;8.95;3.63;;;;;;;;;;3361731;42;20079;-56
2022/06/17 04:21:40;;;;;;;8.63;4.10;;;;;;;;;;3366285;42;20092;-57
2022/06/17 04:24:13;;;;;;;7.72;3.78;;;;;;;;;;3366421;42;20091;-56
2022/06/17 04:26:38;;;;;;;7.90;4.03;;;;;;;;;;3364520;42;20088;-55
2022/06/17 04:29:06;;;;;;;7.93;4.10;;;;;;;;;;3365855;42;20115;-57
2022/06/17 04:31:32;;;;;;;7.47;3.50;;;;;;;;;;3364807;42;20479;-57
2022/06/17 04:34:07;;;;;;;7.77;3.40;;;;;;;;;;3366122;42;20561;-53
2022/06/17 04:36:36;;;;;;;7.38;3.70;;;;;;;;;;3365008;42;20210;-55
2022/06/17 04:39:13;;;;;;;7.35;3.60;;;;;;;;;;3364957;42;20087;-52
2022/06/17 04:41:39;;;;;;;8.02;4.00;;;;;;;;;;3364907;42;20080;-55
2022/06/17 04:44:05;;;;;;;7.68;3.60;;;;;;;;;;3364824;42;20114;-59
2022/06/17 04:46:34;;;;;;;7.77;4.00;;;;;;;;;;3364540;42;20506;-55
2022/06/17 04:49:01;;;;;;;7.60;3.80;;;;;;;;;;3366834;42;20138;-56
2022/06/17 04:51:28;;;;;;;8.80;3.97;;;;;;;;;;3365019;42;20129;-56
2022/06/17 04:53:54;;;;;;;7.97;3.67;;;;;;;;;;3364484;42;20087;-57
2022/06/17 04:56:41;;;;;;;8.18;3.60;;;;;;;;;;3364765;42;20146;-56
2022/06/17 04:59:29;;;;;;;6.77;3.20;;;;;;;;;;3366136;42;20103;-54
2022/06/17 05:01:55;;;;;;;7.47;3.30;;;;;;;;;;3365783;42;20092;-56
2022/06/17 05:04:21;;;;;;;6.20;2.92;;;;;;;;;;3366372;42;20080;-58
2022/06/17 05:06:47;;;;;;;6.05;3.10;;;;;;;;;;3357430;42;20203;-52
2022/06/17 05:09:42;;;;;;;7.00;3.07;;;;;;;;;;3366426;42;20084;-54
2022/06/17 05:12:15;;;;;;;8.38;3.60;;;;;;;;;;3366512;42;20084;-55
2022/06/17 05:14:45;;;;;;;7.47;4.05;;;;;;;;;;3364772;42;20099;-55
2022/06/17 05:17:11;;;;;;;6.45;3.20;;;;;;;;;;3364937;42;20127;-54
2022/06/17 05:19:37;;;;;;;6.43;2.90;;;;;;;;;;3366888;42;20080;-57
2022/06/17 05:22:04;;;;;;;7.50;2.90;;;;;;;;;;3366799;42;20076;-56
2022/06/17 05:24:30;;;;;;;5.88;2.83;;;;;;;;;;3366301;42;20150;-53
2022/06/17 05:26:57;;;;;;;6.13;2.85;;;;;;;;;;3366502;42;20072;-56
2022/06/17 05:29:24;;;;;;;9.75;3.30;;;;;;;;;;3368335;42;20092;-59
2022/06/17 05:31:51;;;;;;;7.57;2.80;;;;;;;;;;3366808;42;20100;-54
2022/06/17 05:34:17;;;;;;;6.55;2.70;;;;;;;;;;3365625;42;20131;-58
2022/06/17 05:36:43;;;;;;;5.68;2.47;;;;;;;;;;3365858;42;20135;-53
2022/06/17 05:39:09;;;;;;;10.07;2.60;;;;;;;;;;3366685;42;20092;-55
2022/06/17 05:41:35;;;;;;;4.93;2.10;;;;;;;;;;3367044;42;20126;-56
2022/06/17 05:44:01;;;;;;;6.50;2.30;;;;;;;;;;3369198;42;20122;-56
2022/06/17 05:46:27;;;;;;;5.00;2.00;;;;;;;;;;3371220;42;20639;-56
2022/06/17 05:48:53;;;;;;;5.20;2.40;;;;;;;;;;3366134;42;20166;-56
2022/06/17 05:51:19;;;;;;;6.13;2.87;;;;;;;;;;3369586;42;20170;-55
2022/06/17 05:53:45;;;;;;;6.68;2.60;;;;;;;;;;3372275;42;20222;-55
2022/06/17 05:56:11;;;;;;;5.03;2.35;;;;;;;;;;3368130;42;20475;-54
2022/06/17 05:58:37;;;;;;;5.53;2.10;;;;;;;;;;3368760;42;20095;-56
2022/06/17 06:01:03;;;;;;;5.43;2.10;;;;;;;;;;3367969;42;20160;-55
2022/06/17 06:03:29;;;;;;;5.20;2.55;;;;;;;;;;3368804;42;20083;-53
2022/06/17 06:05:55;;;;;;;5.40;2.55;;;;;;;;;;3367899;42;20095;-54
2022/06/17 06:08:21;;;;;;;5.57;2.20;;;;;;;;;;3368185;42;20083;-55
2022/06/17 06:10:47;;;;;;;5.22;2.33;;;;;;;;;;3369515;42;20106;-56
2022/06/17 06:13:20;;;;;;;5.65;2.30;;;;;;;;;;3368537;42;20855;-57
2022/06/17 06:15:47;;;;;;;5.70;2.50;;;;;;;;;;3368965;42;20096;-56
2022/06/17 06:18:15;;;;;;;7.05;2.25;;;;;;;;;;3369505;42;20088;-56
2022/06/17 06:20:41;;;;;;;5.50;2.40;;;;;;;;;;3369903;42;20080;-56
2022/06/17 06:23:07;;;;;;;5.32;2.20;;;;;;;;;;3368903;42;20150;-56
2022/06/17 06:25:33;;;;;;;5.20;2.00;;;;;;;;;;3368387;42;20119;-56
2022/06/17 06:27:59;;;;;;;6.60;2.80;;;;;;;;;;3367788;42;20088;-54
2022/06/17 06:30:27;;;;;;;5.20;2.53;;;;;;;;;;3366364;42;20102;-57
2022/06/17 06:32:55;;;;;;;6.43;2.60;;;;;;;;;;3368098;42;20118;-56
2022/06/17 06:35:23;;;;;;;5.18;2.28;;;;;;;;;;3363887;42;20107;-56
2022/06/17 06:37:49;;;;;;;5.35;2.40;;;;;;;;;;3368886;42;20096;-54
2022/06/17 06:40:15;;;;;;;7.38;2.67;;;;;;;;;;3369172;42;20165;-56
2022/06/17 06:42:41;;;;;;;5.73;2.20;;;;;;;;;;3369257;42;20118;-58
2022/06/17 06:45:11;;;;;;;8.13;2.40;;;;;;;;;;3368963;42;20155;-56
2022/06/17 06:47:37;;;;;;;5.57;2.20;;;;;;;;;;3368159;42;20110;-54
2022/06/17 06:50:04;;;;;;;6.78;2.25;;;;;;;;;;3369106;42;20258;-56
2022/06/17 06:52:30;;;;;;;6.77;2.00;;;;;;;;;;3369765;42;20139;-56
2022/06/17 06:54:56;;;;;;;7.93;2.05;;;;;;;;;;3369286;42;20564;-54
2022/06/17 06:57:22;;;;;;;7.05;2.30;;;;;;;;;;3369670;42;20084;-53
2022/06/17 06:59:48;;;;;;;5.57;1.90;;;;;;;;;;3369406;42;20185;-57
2022/06/17 07:02:14;;;;;;;4.95;1.98;;;;;;;;;;3369335;42;20609;-56
2022/06/17 07:04:40;;;;;;;5.10;1.80;;;;;;;;;;3368851;42;20080;-56
2022/06/17 07:07:06;;;;;;;6.25;1.73;;;;;;;;;;3368697;42;20159;-50
2022/06/17 07:09:32;;;;;;;5.75;1.80;;;;;;;;;;3368873;42;20096;-56
2022/06/17 07:11:58;;;;;;;7.73;1.90;;;;;;;;;;3368836;42;20092;-56
2022/06/17 07:14:24;;;;;;;6.55;2.10;;;;;;;;;;3368645;42;20118;-55
2022/06/17 07:16:50;;;;;;;6.25;1.90;;;;;;;;;;3367417;42;20088;-56
2022/06/17 07:19:16;;;;;;;7.45;1.98;;;;;;;;;;3368203;42;20079;-54
2022/06/17 07:21:42;;;;;;;8.87;2.00;;;;;;;;;;3367059;42;20605;-57
2022/06/17 07:24:08;;;;;;;7.53;1.90;;;;;;;;;;3368720;42;20103;-55
2022/06/17 07:26:34;;;;;;;5.40;2.30;;;;;;;;;;3369808;42;20146;-56
2022/06/17 07:29:00;;;;;;;5.43;2.30;;;;;;;;;;3369413;42;20183;-53
2022/06/17 07:31:28;;;;;;;6.10;2.28;;;;;;;;;;3368770;42;20103;-53
2022/06/17 07:33:56;;;;;;;4.85;1.63;;;;;;;;;;3365418;42;20119;-55
2022/06/17 07:41:54;;;;;;;5.00;1.50;;;;;;;;;;3363969;42;20111;-57
2022/06/17 07:44:20;;;;;;;4.57;1.60;;;;;;;;;;3367935;42;20096;-58
2022/06/17 07:46:46;;;;;;;4.80;1.75;;;;;;;;;;3359330;42;20118;-57
2022/06/17 07:49:12;;;;;;;5.32;1.70;;;;;;;;;;3367922;42;20649;-56
2022/06/17 07:51:38;;;;;;;6.30;1.50;;;;;;;;;;3367110;42;20939;-58
2022/06/17 07:54:04;;;;;;;4.75;2.10;;;;;;;;;;3368453;42;20104;-57
2022/06/17 07:56:30;;;;;;;5.93;1.52;;;;;;;;;;3368303;42;20090;-58
2022/06/17 07:58:56;;;;;;;4.97;1.55;;;;;;;;;;3367941;42;20534;-55
2022/06/17 08:01:22;;;;;;;4.87;1.53;;;;;;;;;;3368225;42;20100;-57
2022/06/17 08:03:48;;;;;;;5.50;1.60;;;;;;;;;;3367443;42;20123;-57
2022/06/17 08:06:15;;;;;;;4.75;1.40;;;;;;;;;;3367081;42;20166;-58
2022/06/17 08:08:41;;;;;;;4.80;1.50;;;;;;;;;;3367746;42;20099;-56
2022/06/17 08:11:08;;;;;;;7.22;1.90;;;;;;;;;;3367772;42;20147;-59
2022/06/17 08:13:33;;;;;;;12.53;2.17;;;;;;;;;;3367764;42;20122;-57
2022/06/17 08:16:01;;;;;;;6.80;1.60;;;;;;;;;;3367404;42;20080;-62
2022/06/17 08:18:27;;;;;;;6.30;1.73;;;;;;;;;;3367461;42;20114;-57
2022/06/17 08:20:53;;;;;;;6.72;1.70;;;;;;;;;;3367433;42;20092;-57
2022/06/17 08:23:20;;;;;;;4.97;1.40;;;;;;;;;;3367089;42;20114;-57
2022/06/17 08:25:46;;;;;;;5.03;1.70;;;;;;;;;;3367441;42;20147;-60
2022/06/17 08:28:13;;;;;;;5.07;1.50;;;;;;;;;;3367243;42;20498;-58
2022/06/17 08:30:42;;;;;;;5.57;1.70;;;;;;;;;;3367149;42;20134;-58
2022/06/17 08:33:08;;;;;;;8.85;2.05;;;;;;;;;;3366806;42;20169;-58
2022/06/17 08:35:36;;;;;;;6.93;1.77;;;;;;;;;;3366762;42;20103;-58
2022/06/17 08:38:06;;;;;;;4.95;1.75;;;;;;;;;;3366839;42;20092;-58
2022/06/17 08:40:40;;;;;;;6.05;1.75;;;;;;;;;;3367065;42;20139;-58
2022/06/17 08:43:34;;;;;;;5.00;1.85;;;;;;;;;;3366592;42;20107;-56
2022/06/17 08:46:31;;;;;;;6.15;1.70;;;;;;;;;;3362552;42;20103;-55
2022/06/17 08:49:04;;;;;;;5.07;1.83;;;;;;;;;;3361234;42;20096;-56
2022/06/17 08:52:19;;;;;;;6.75;1.73;;;;;;;;;;3364990;42;20091;-58
2022/06/17 08:54:51;;;;;;;10.50;2.20;;;;;;;;;;3351574;42;20163;-57
2022/06/17 08:57:20;;;;;;;6.35;1.90;;;;;;;;;;3366661;42;20087;-58
2022/06/17 09:00:08;;;;;;;5.30;2.00;;;;;;;;;;3365104;42;20135;-57
2022/06/17 09:02:55;;;;;;;5.87;2.20;;;;;;;;;;3365277;42;20091;-58
2022/06/17 09:05:27;;;;;;;7.78;2.33;;;;;;;;;;3366299;42;20091;-57
2022/06/17 09:08:08;;;;;;;5.88;2.33;;;;;;;;;;3366453;42;20139;-57
2022/06/17 09:10:41;;;;;;;6.10;2.17;;;;;;;;;;3366226;42;20564;-63
2022/06/17 09:13:10;;;;;;;6.18;1.90;;;;;;;;;;3366411;42;20092;-58
2022/06/17 09:15:39;;;;;;;5.53;2.00;;;;;;;;;;3366473;42;20092;-57
2022/06/17 09:18:10;;;;;;;5.43;1.90;;;;;;;;;;3366822;42;20107;-59
2022/06/17 09:20:42;;;;;;;5.40;2.10;;;;;;;;;;3366016;42;20087;-57
2022/06/17 09:23:09;;;;;;;5.22;2.30;;;;;;;;;;3365828;42;20572;-56
2022/06/17 09:25:46;;;;;;;4.70;1.95;;;;;;;;;;3364790;42;20088;-58
2022/06/17 09:28:22;;;;;;;5.73;2.00;;;;;;;;;;3364569;42;20083;-58
2022/06/17 09:30:52;;;;;;;4.65;1.55;;;;;;;;;;3359845;42;20095;-56
2022/06/17 09:33:26;;;;;;;4.40;1.30;;;;;;;;;;3365794;42;20095;-57
2022/06/17 09:36:20;;;;;;;7.13;1.70;;;;;;;;;;3366672;42;20139;-57
2022/06/17 09:39:04;;;;;;;4.75;1.50;;;;;;;;;;3364758;42;20155;-57
2022/06/17 09:42:04;;;;;;;4.97;1.50;;;;;;;;;;3363225;42;20226;-58
2022/06/17 09:44:33;;;;;;;6.10;1.58;;;;;;;;;;3366538;42;20187;-58
2022/06/17 09:47:12;;;;;;;5.05;1.60;;;;;;;;;;3366585;42;20151;-56
2022/06/17 09:49:57;;;;;;;4.57;1.42;;;;;;;;;;3366527;42;20088;-58
2022/06/17 09:52:28;;;;;;;6.55;1.55;;;;;;;;;;3366778;42;20146;-56
2022/06/17 09:55:01;;;;;;;4.87;1.57;;;;;;;;;;3366752;42;20162;-56
2022/06/17 09:57:50;;;;;;;4.65;1.40;;;;;;;;;;3366201;42;20092;-57
2022/06/17 10:00:19;;;;;;;4.55;1.38;;;;;;;;;;3361586;42;20102;-57
2022/06/17 10:02:51;;;;;;;6.13;1.42;;;;;;;;;;3366745;42;20173;-56
2022/06/17 10:05:56;;;;;;;4.88;1.40;;;;;;;;;;3367852;42;20092;-58
2022/06/17 10:08:42;;;;;;;4.63;1.43;;;;;;;;;;3368125;42;20147;-57
2022/06/17 10:11:16;;;;;;;4.30;1.45;;;;;;;;;;3368576;42;20910;-57
2022/06/17 10:14:06;;;;;;;4.47;1.55;;;;;;;;;;3368353;42;20618;-56
2022/06/17 10:19:45;;;;;;;5.50;1.42;;;;;;;;;;3366410;42;20096;-56
2022/06/17 10:22:14;;;;;;;5.33;1.40;;;;;;;;;;3368141;42;20095;-56
2022/06/17 10:24:51;;;;;;;6.00;1.58;;;;;;;;;;3368353;42;20111;-56
2022/06/17 10:27:36;;;;;;;6.10;1.80;;;;;;;;;;3366869;42;20581;-55
2022/06/17 10:30:25;;;;;;;5.72;1.60;;;;;;;;;;3370827;42;20092;-55
2022/06/17 10:32:51;;;;;;;5.78;1.45;;;;;;;;;;3365577;42;20103;-59
2022/06/17 10:35:27;;;;;;;4.73;1.20;;;;;;;;;;3370059;42;20093;-57
2022/06/17 10:37:54;;;;;;;4.25;1.40;;;;;;;;;;3372978;42;20652;-59
2022/06/17 10:40:21;;;;;;;5.22;1.40;;;;;;;;;;3371396;42;20080;-57
2022/06/17 10:42:48;;;;;;;5.10;1.73;;;;;;;;;;3363065;42;20095;-54
2022/06/17 10:45:15;;;;;;;7.93;1.83;;;;;;;;;;3371185;42;20087;-57
2022/06/17 10:47:47;;;;;;;5.70;1.80;;;;;;;;;;3371363;42;20170;-55
2022/06/17 10:50:22;;;;;;;5.63;1.63;;;;;;;;;;3372076;42;20103;-56
2022/06/17 10:52:52;;;;;;;5.20;1.52;;;;;;;;;;3372815;42;20103;-57
2022/06/17 10:55:20;;;;;;;4.82;1.67;;;;;;;;;;3373163;42;20131;-57
2022/06/17 10:58:27;;;;;;;4.28;1.45;;;;;;;;;;3374086;42;20555;-56
2022/06/17 11:01:15;;;;;;;7.60;1.60;;;;;;;;;;3374984;42;20142;-57
2022/06/17 11:03:42;;;;;;;5.68;1.80;;;;;;;;;;3373163;42;20095;-56
2022/06/17 11:06:08;;;;;;;5.78;1.73;;;;;;;;;;3374554;42;20585;-58
2022/06/17 11:08:52;;;;;;;6.28;1.85;;;;;;;;;;3375106;42;20096;-60
2022/06/17 11:12:04;;;;;;;4.90;1.63;;;;;;;;;;3366045;42;20509;-56
2022/06/17 11:14:38;;;;;;;6.30;1.90;;;;;;;;;;3367733;42;20140;-57
2022/06/17 11:17:12;;;;;;;6.07;1.60;;;;;;;;;;3370577;42;20096;-55
2022/06/17 11:19:38;;;;;;;6.45;1.55;;;;;;;;;;3370647;42;20161;-54
2022/06/17 11:22:04;;;;;;;6.75;1.50;;;;;;;;;;3370705;42;20139;-55
2022/06/17 11:24:34;;;;;;;4.40;1.50;;;;;;;;;;3370153;42;20084;-56
2022/06/17 11:27:17;;;;;;;4.22;1.50;;;;;;;;;;3369674;42;20087;-57
2022/06/17 11:29:45;;;;;;;5.18;1.60;;;;;;;;;;3363234;42;20165;-55
2022/06/17 11:32:20;;;;;;;5.22;1.80;;;;;;;;;;3371332;42;20138;-57
2022/06/17 11:34:51;;;;;;;6.25;1.90;;;;;;;;;;3372478;42;20088;-55
2022/06/17 11:37:23;;;;;;;4.37;1.53;;;;;;;;;;3370245;42;20094;-57
2022/06/17 11:40:09;;;;;;;6.65;1.90;;;;;;;;;;3368678;42;20179;-55
2022/06/17 11:42:35;;;;;;;5.45;1.80;;;;;;;;;;3370126;42;20187;-56
2022/06/17 11:45:03;;;;;;;5.78;1.60;;;;;;;;;;3361614;42;20092;-57
2022/06/17 11:47:31;;;;;;;5.40;1.90;;;;;;;;;;3370033;42;20114;-54
2022/06/17 11:50:18;;;;;;;6.90;1.87;;;;;;;;;;3369379;42;20096;-55
2022/06/17 11:52:44;;;;;;;5.07;1.90;;;;;;;;;;3366103;42;20564;-56
2022/06/17 11:55:10;;;;;;;5.70;1.90;;;;;;;;;;3368778;42;20080;-58
2022/06/17 11:57:38;;;;;;;6.95;2.00;;;;;;;;;;3369792;42;21067;-56
2022/06/17 12:00:34;;;;;;;5.15;1.92;;;;;;;;;;3369227;42;20118;-57
2022/06/17 12:03:02;;;;;;;5.77;2.30;;;;;;;;;;3348526;42;20104;-55
2022/06/17 12:05:32;;;;;;;7.72;2.00;;;;;;;;;;3369602;42;20560;-56
2022/06/17 12:08:24;;;;;;;6.32;2.15;;;;;;;;;;3369651;42;20079;-54
2022/06/17 12:11:04;;;;;;;5.40;2.00;;;;;;;;;;3371596;42;20096;-57
2022/06/17 12:13:39;;;;;;;6.80;2.28;;;;;;;;;;3371910;42;20091;-57
2022/06/17 12:16:24;;;;;;;4.97;1.80;;;;;;;;;;3370946;42;20083;-56
2022/06/17 12:18:58;;;;;;;5.20;1.80;;;;;;;;;;3371406;42;20134;-56
2022/06/17 12:21:25;;;;;;;6.40;2.10;;;;;;;;;;3374072;42;20084;-56
2022/06/17 12:23:56;;;;;;;5.28;1.85;;;;;;;;;;3373217;42;20112;-57
2022/06/17 12:26:29;;;;;;;4.80;1.77;;;;;;;;;;3370064;42;20118;-55
2022/06/17 12:29:04;;;;;;;4.73;1.70;;;;;;;;;;3372287;42;21000;-57
2022/06/17 12:31:36;;;;;;;7.30;1.80;;;;;;;;;;3371828;42;20088;-56
2022/06/17 12:34:30;;;;;;;6.00;2.00;;;;;;;;;;3372610;42;20143;-54
2022/06/17 12:36:59;;;;;;;6.25;1.98;;;;;;;;;;3371670;42;20493;-56
2022/06/17 12:39:47;;;;;;;5.30;2.05;;;;;;;;;;3371191;42;20122;-57
2022/06/17 12:42:44;;;;;;;7.00;2.40;;;;;;;;;;3372863;42;20084;-57
2022/06/17 12:45:40;;;;;;;7.43;2.17;;;;;;;;;;3367874;42;20088;-56
2022/06/17 12:48:26;;;;;;;5.72;2.00;;;;;;;;;;3370672;42;20094;-56
2022/06/17 12:54:30;;;;;;;5.82;1.85;;;;;;;;;;3360240;42;20674;-55
2022/06/17 12:57:01;;;;;;;5.87;2.27;;;;;;;;;;3370008;42;20569;-59
2022/06/17 12:59:42;;;;;;;6.35;2.20;;;;;;;;;;3371981;42;20122;-58
2022/06/17 13:02:12;;;;;;;6.97;2.20;;;;;;;;;;3372326;42;20103;-57
2022/06/17 13:04:50;;;;;;;6.03;1.75;;;;;;;;;;3367811;42;20122;-57
2022/06/17 13:07:51;;;;;;;5.07;2.10;;;;;;;;;;3365662;42;20148;-56
2022/06/17 13:10:41;;;;;;;7.33;2.00;;;;;;;;;;3341581;42;20081;-56
2022/06/17 13:13:09;;;;;;;6.60;2.00;;;;;;;;;;3368427;42;20135;-55
2022/06/17 13:15:40;;;;;;;5.72;1.90;;;;;;;;;;3370985;42;20143;-55
2022/06/17 13:18:12;;;;;;;8.30;2.22;;;;;;;;;;3369296;42;20174;-57
2022/06/17 13:20:56;;;;;;;7.22;1.85;;;;;;;;;;3371154;42;20142;-55
2022/06/17 13:23:43;;;;;;;6.07;2.00;;;;;;;;;;3366056;42;20566;-53
2022/06/17 13:26:18;;;;;;;5.10;2.00;;;;;;;;;;3367586;42;20182;-57
2022/06/17 13:28:52;;;;;;;5.43;1.80;;;;;;;;;;3371514;42;20100;-54
2022/06/17 13:31:28;;;;;;;4.88;1.90;;;;;;;;;;3369429;42;20599;-55
2022/06/17 13:34:01;;;;;;;6.45;2.00;;;;;;;;;;3369322;42;20161;-55
2022/06/17 13:36:52;;;;;;;5.27;1.90;;;;;;;;;;3370097;42;20084;-53
2022/06/17 13:39:20;;;;;;;6.35;2.10;;;;;;;;;;3370861;42;20084;-59
2022/06/17 13:41:59;;;;;;;4.82;1.80;;;;;;;;;;3369526;42;20135;-56
2022/06/17 13:44:36;;;;;;;5.22;1.95;;;;;;;;;;3365787;42;20275;-53
2022/06/17 13:47:15;;;;;;;6.72;1.98;;;;;;;;;;3369561;42;20106;-56
2022/06/17 13:50:16;;;;;;;5.70;1.80;;;;;;;;;;3370536;42;20162;-56
2022/06/17 13:53:07;;;;;;;5.28;1.98;;;;;;;;;;3369395;42;20092;-56
2022/06/17 13:56:04;;;;;;;6.43;2.10;;;;;;;;;;3369051;42;20155;-56
2022/06/17 13:58:53;;;;;;;5.32;1.90;;;;;;;;;;3370814;42;20088;-56
2022/06/17 14:01:22;;;;;;;5.47;1.70;;;;;;;;;;3365865;42;20084;-55
2022/06/17 14:03:54;;;;;;;5.37;1.53;;;;;;;;;;3371696;42;20088;-57
2022/06/17 14:06:21;;;;;;;5.82;1.83;;;;;;;;;;3370207;42;20138;-55
2022/06/17 14:09:06;;;;;;;6.05;1.90;;;;;;;;;;3368810;42;20166;-55
2022/06/17 14:11:41;;;;;;;5.32;1.90;;;;;;;;;;3369904;42;20092;-57
2022/06/17 14:14:20;;;;;;;9.00;2.10;;;;;;;;;;3351791;42;20564;-56
2022/06/17 14:16:45;;;;;;;4.80;1.90;;;;;;;;;;3369258;42;20533;-62
2022/06/17 14:19:18;;;;;;;6.30;1.90;;;;;;;;;;3372666;42;20150;-57
2022/06/17 14:21:52;;;;;;;5.10;1.95;;;;;;;;;;3370586;42;20219;-53
2022/06/17 14:24:44;;;;;;;6.60;1.90;;;;;;;;;;3370303;42;20154;-54
2022/06/17 14:27:20;;;;;;;5.33;1.97;;;;;;;;;;3364575;42;20230;-53
2022/06/17 14:30:09;;;;;;;8.30;2.10;;;;;;;;;;3370935;42;20186;-56
2022/06/17 14:32:44;;;;;;;6.50;2.10;;;;;;;;;;3363778;42;20088;-54
2022/06/17 14:35:29;;;;;;;8.35;2.10;;;;;;;;;;3371347;42;20084;-51
2022/06/17 14:38:13;;;;;;;6.43;1.77;;;;;;;;;;3371288;42;20100;-51
2022/06/17 14:43:51;;;;;;;5.22;2.10;;;;;;;;;;3365377;42;20155;-52
2022/06/17 14:46:17;;;;;;;6.32;2.38;;;;;;;;;;3370874;42;20147;-53
2022/06/17 14:49:12;;;;;;;5.40;2.10;;;;;;;;;;3370921;42;20091;-55
2022/06/17 14:51:43;;;;;;;5.63;2.10;;;;;;;;;;3370872;42;20146;-54
2022/06/17 14:54:09;;;;;;;6.80;2.20;;;;;;;;;;3369187;42;20095;-54
2022/06/17 14:57:19;;;;;;;7.88;2.80;;;;;;;;;;3370389;42;20859;-54
2022/06/17 14:59:47;;;;;;;7.50;2.60;;;;;;;;;;3356794;42;20596;-55
2022/06/17 15:02:15;;;;;;;6.10;2.30;;;;;;;;;;3369379;42;20157;-54
2022/06/17 15:04:44;;;;;;;5.93;2.35;;;;;;;;;;3371703;42;20148;-53
2022/06/17 15:07:38;;;;;;;6.63;2.40;;;;;;;;;;3370868;42;20127;-54
2022/06/17 15:10:14;;;;;;;6.50;2.40;;;;;;;;;;3367390;42;20123;-54
2022/06/17 15:12:58;;;;;;;6.25;2.28;;;;;;;;;;3368597;42;20147;-54
2022/06/17 15:15:26;;;;;;;5.93;2.70;;;;;;;;;;3370289;42;20122;-54
2022/06/17 15:17:58;;;;;;;7.32;2.85;;;;;;;;;;3371140;42;20579;-55
2022/06/17 15:20:31;;;;;;;6.43;2.00;;;;;;;;;;3363579;42;20088;-56
2022/06/17 15:23:15;;;;;;;5.43;2.20;;;;;;;;;;3370123;42;20092;-52
2022/06/17 15:25:52;;;;;;;7.85;2.10;;;;;;;;;;3369777;42;20294;-52
2022/06/17 15:28:30;;;;;;;6.68;2.05;;;;;;;;;;3367857;42;20139;-55
2022/06/17 15:30:56;;;;;;;4.80;2.15;;;;;;;;;;3370352;42;20608;-54
2022/06/17 15:33:27;;;;;;;6.03;2.20;;;;;;;;;;3369760;42;20554;-55
2022/06/17 15:36:03;;;;;;;5.00;2.03;;;;;;;;;;3368551;42;20080;-55